createdAt,value
2022-10-07T00:02:33.734Z,8.55
2022-10-07T00:07:35.754Z,8.52
2022-10-07T00:12:37.523Z,8.52
2022-10-07T00:17:39.316Z,8.51
2022-10-07T00:22:41.057Z,8.51
2022-10-07T00:27:42.964Z,8.51
2022-10-07T00:32:45.030Z,8.49
2022-10-07T00:37:47.116Z,8.47
2022-10-07T00:42:48.867Z,8.39
2022-10-07T00:47:51.593Z,8.35
2022-10-07T00:52:57.691Z,8.32
2022-10-07T00:58:01.520Z,8.31
2022-10-07T01:03:03.162Z,8.29
2022-10-07T01:08:07.112Z,8.24
2022-10-07T01:13:14.693Z,8.20
2022-10-07T01:18:55.360Z,8.15
2022-10-07T01:24:27.348Z,8.12
2022-10-07T01:29:35.576Z,8.06
2022-10-07T01:34:37.287Z,8.02
2022-10-07T01:39:42.363Z,7.96
2022-10-07T01:44:44.699Z,7.92
2022-10-07T01:49:46.676Z,7.88
2022-10-07T01:54:59.077Z,7.83
2022-10-07T02:00:10.635Z,7.80
2022-10-07T02:05:31.251Z,7.78
2022-10-07T02:10:37.060Z,7.71
2022-10-07T02:15:47.879Z,7.61
2022-10-07T02:20:50.521Z,7.52
2022-10-07T02:25:52.404Z,7.51
2022-10-07T02:30:56.110Z,7.50
2022-10-07T02:36:07.318Z,7.45
2022-10-07T02:41:31.139Z,7.41
2022-10-07T02:46:42.316Z,7.39
2022-10-07T02:51:50.303Z,7.33
2022-10-07T02:56:52.086Z,7.33
2022-10-07T03:01:55.805Z,7.33
2022-10-07T03:06:58.734Z,7.35
2022-10-07T03:12:00.666Z,7.38
2022-10-07T03:17:02.954Z,7.40
2022-10-07T03:22:05.653Z,7.43
2022-10-07T03:27:09.530Z,7.44
2022-10-07T03:32:15.009Z,7.48
2022-10-07T03:37:17.441Z,7.49
2022-10-07T03:42:20.922Z,7.49
2022-10-07T03:47:22.979Z,7.46
2022-10-07T03:52:24.835Z,7.47
2022-10-07T03:57:47.087Z,7.44
2022-10-07T04:02:49.360Z,7.43
2022-10-07T04:07:52.513Z,7.45
2022-10-07T04:12:55.756Z,7.43
2022-10-07T04:17:58.521Z,7.39
2022-10-07T04:23:01.029Z,7.36
2022-10-07T04:28:07.257Z,7.34
2022-10-07T04:33:10.738Z,7.37
2022-10-07T04:38:13.192Z,7.39
2022-10-07T04:43:20.545Z,7.40
2022-10-07T04:48:27.632Z,7.42
2022-10-07T04:53:29.971Z,7.39
2022-10-07T04:58:31.810Z,7.39
2022-10-07T05:03:36.092Z,7.38
2022-10-07T05:08:37.831Z,7.38
2022-10-07T05:13:41.011Z,7.38
2022-10-07T05:18:42.981Z,7.38
2022-10-07T05:23:47.267Z,7.42
2022-10-07T05:28:53.858Z,7.45
2022-10-07T05:34:02.059Z,7.46
2022-10-07T05:39:03.992Z,7.49
2022-10-07T05:44:27.286Z,7.54
2022-10-07T05:49:32.664Z,7.58
2022-10-07T05:54:34.715Z,7.63
2022-10-07T05:59:37.366Z,7.62
2022-10-07T06:04:39.201Z,7.59
2022-10-07T06:09:59.548Z,7.57
2022-10-07T06:15:01.286Z,7.54
2022-10-07T06:20:03.029Z,7.56
2022-10-07T06:25:05.157Z,7.59
2022-10-07T06:30:08.164Z,7.62
2022-10-07T06:35:09.949Z,7.69
2022-10-07T06:40:11.937Z,7.76
2022-10-07T06:45:14.370Z,7.80
2022-10-07T06:50:16.283Z,7.85
2022-10-07T06:55:18.363Z,7.95
2022-10-07T07:00:20.398Z,8.07
2022-10-07T07:05:22.764Z,8.15
2022-10-07T07:10:25.548Z,8.25
2022-10-07T07:15:28.416Z,8.38
2022-10-07T07:20:35.728Z,8.50
2022-10-07T07:25:39.044Z,8.64
2022-10-07T07:30:40.856Z,8.78
2022-10-07T07:35:44.850Z,8.97
2022-10-07T07:40:46.998Z,9.17
2022-10-07T07:45:49.159Z,9.32
2022-10-07T07:50:50.933Z,9.46
2022-10-07T07:55:56.353Z,9.58
2022-10-07T08:01:06.842Z,9.76
2022-10-07T08:06:09.628Z,9.94
2022-10-07T08:11:19.311Z,10.15
2022-10-07T08:16:23.474Z,10.28
2022-10-07T08:21:27.382Z,10.44
2022-10-07T08:26:33.553Z,10.58
2022-10-07T08:31:37.233Z,10.72
2022-10-07T08:36:39.648Z,10.83
2022-10-07T08:41:45.943Z,10.99
2022-10-07T08:47:18.114Z,11.17
2022-10-07T08:52:25.619Z,11.31
2022-10-07T08:57:37.277Z,11.46
2022-10-07T09:02:55.172Z,11.63
2022-10-07T09:07:58.020Z,11.81
2022-10-07T09:13:21.328Z,11.97
2022-10-07T09:18:39.165Z,12.09
2022-10-07T09:23:40.781Z,12.23
2022-10-07T09:28:42.441Z,12.41
2022-10-07T09:33:45.841Z,12.59
2022-10-07T09:38:49.698Z,12.79
2022-10-07T09:43:53.867Z,12.93
2022-10-07T09:48:55.528Z,13.09
2022-10-07T09:54:04.495Z,13.25
2022-10-07T09:59:19.037Z,13.42
2022-10-07T10:04:24.853Z,13.50
2022-10-07T10:09:26.470Z,13.66
2022-10-07T10:14:48.670Z,13.78
2022-10-07T10:19:50.403Z,13.94
2022-10-07T10:25:10.657Z,14.08
2022-10-07T10:30:20.770Z,14.27
2022-10-07T10:35:28.268Z,14.38
2022-10-07T10:40:41.820Z,14.51
2022-10-07T10:46:11.449Z,14.63
2022-10-07T10:51:32.244Z,14.77
2022-10-07T10:56:48.172Z,14.87
2022-10-07T11:02:14.854Z,15.03
2022-10-07T11:07:35.862Z,15.25
2022-10-07T11:12:39.942Z,15.37
2022-10-07T11:17:41.697Z,15.45
2022-10-07T11:22:47.834Z,15.58
2022-10-07T11:27:50.598Z,15.56
2022-10-07T11:33:08.211Z,15.62
2022-10-07T11:38:09.678Z,15.70
2022-10-07T11:43:40.901Z,15.79
2022-10-07T11:49:00.777Z,15.94
2022-10-07T11:54:03.146Z,15.99
2022-10-07T11:59:06.424Z,16.09
2022-10-07T12:04:30.025Z,16.28
2022-10-07T12:09:53.738Z,16.60
2022-10-07T12:15:02.096Z,16.91
2022-10-07T12:20:34.874Z,17.29
2022-10-07T12:25:36.830Z,17.51
2022-10-07T12:30:42.202Z,17.76
2022-10-07T12:35:45.563Z,17.90
2022-10-07T12:41:06.641Z,18.49
2022-10-07T12:46:11.538Z,18.84
2022-10-07T12:51:19.318Z,19.25
2022-10-07T12:56:22.518Z,19.23
2022-10-07T13:01:42.947Z,18.83
2022-10-07T13:07:22.379Z,18.79
2022-10-07T13:12:37.766Z,18.91
2022-10-07T13:18:10.511Z,18.75
2022-10-07T13:23:26.799Z,19.05
2022-10-07T13:28:48.983Z,19.19
2022-10-07T13:33:51.276Z,19.56
2022-10-07T13:38:54.795Z,19.30
2022-10-07T13:43:59.362Z,19.46
2022-10-07T13:49:01.170Z,19.73
2022-10-07T13:54:04.577Z,19.85
2022-10-07T13:59:06.777Z,20.01
2022-10-07T14:04:14.403Z,20.09
2022-10-07T14:09:21.238Z,20.15
2022-10-07T14:14:26.145Z,20.10
2022-10-07T14:19:31.785Z,19.93
2022-10-07T14:24:33.467Z,19.67
2022-10-07T14:29:37.618Z,19.66
2022-10-07T14:35:01.799Z,19.30
2022-10-07T14:40:03.688Z,18.75
2022-10-07T14:45:08.116Z,18.48
2022-10-07T14:50:12.731Z,18.28
2022-10-07T14:55:24.555Z,18.27
2022-10-07T15:00:29.167Z,18.23
2022-10-07T15:05:33.517Z,18.50
2022-10-07T15:10:35.158Z,18.48
2022-10-07T15:15:43.425Z,18.29
2022-10-07T15:20:45.102Z,18.58
2022-10-07T15:25:46.799Z,18.69
2022-10-07T15:30:48.553Z,18.82
2022-10-07T15:35:50.176Z,18.72
2022-10-07T15:40:53.379Z,18.53
2022-10-07T15:46:01.121Z,18.36
2022-10-07T15:51:04.765Z,18.19
2022-10-07T15:56:07.135Z,18.03
2022-10-07T16:01:08.771Z,17.81
2022-10-07T16:06:18.322Z,17.62
2022-10-07T16:11:20.068Z,17.47
2022-10-07T16:16:23.555Z,17.30
2022-10-07T16:21:35.528Z,17.09
2022-10-07T16:26:37.463Z,16.94
2022-10-07T16:31:40.522Z,16.73
2022-10-07T16:36:45.601Z,16.56
2022-10-07T16:41:48.428Z,16.41
2022-10-07T16:46:50.205Z,16.20
2022-10-07T16:51:52.984Z,16.00
2022-10-07T16:56:54.612Z,15.80
2022-10-07T17:01:56.761Z,15.54
2022-10-07T17:06:58.571Z,15.22
2022-10-07T17:12:00.253Z,14.98
2022-10-07T17:17:03.926Z,14.73
2022-10-07T17:22:05.577Z,14.52
2022-10-07T17:27:08.846Z,14.34
2022-10-07T17:32:11.317Z,14.18
2022-10-07T17:37:13.178Z,14.05
2022-10-07T17:42:14.972Z,13.87
2022-10-07T17:47:16.635Z,13.72
2022-10-07T17:52:22.884Z,13.58
2022-10-07T17:57:27.262Z,13.38
2022-10-07T18:02:28.902Z,13.20
2022-10-07T18:07:30.560Z,13.08
2022-10-07T18:12:50.991Z,12.95
2022-10-07T18:17:52.628Z,12.80
2022-10-07T18:22:57.537Z,12.65
2022-10-07T18:28:01.773Z,12.49
2022-10-07T18:33:03.530Z,12.35
2022-10-07T18:38:05.212Z,12.18
2022-10-07T18:43:06.924Z,12.05
2022-10-07T18:48:08.547Z,11.97
2022-10-07T18:53:10.260Z,11.84
2022-10-07T18:58:11.893Z,11.70
2022-10-07T19:03:13.547Z,11.58
2022-10-07T19:08:15.171Z,11.47
2022-10-07T19:13:35.347Z,11.35
2022-10-07T19:18:38.277Z,11.23
2022-10-07T19:23:40.536Z,11.12
2022-10-07T19:28:42.335Z,10.97
2022-10-07T19:33:47.216Z,10.87
2022-10-07T19:38:52.416Z,10.80
2022-10-07T19:43:54.092Z,10.74
2022-10-07T19:48:56.855Z,10.69
2022-10-07T19:53:59.047Z,10.60
2022-10-07T19:59:11.855Z,10.49
2022-10-07T20:04:18.787Z,10.45
2022-10-07T20:09:20.594Z,10.42
2022-10-07T20:14:22.236Z,10.34
2022-10-07T20:19:23.960Z,10.27
2022-10-07T20:24:26.457Z,10.21
2022-10-07T20:29:28.226Z,10.19
2022-10-07T20:34:29.848Z,10.16
2022-10-07T20:39:49.801Z,10.07
2022-10-07T20:44:51.699Z,9.98
2022-10-07T20:49:55.453Z,9.85
2022-10-07T20:54:57.145Z,9.90
2022-10-07T20:59:58.895Z,9.92
2022-10-07T21:05:00.573Z,9.93
2022-10-07T21:10:02.221Z,9.90
2022-10-07T21:15:04.093Z,9.92
2022-10-07T21:20:07.067Z,9.97
2022-10-07T21:25:11.724Z,10.00
2022-10-07T21:30:13.475Z,9.94
2022-10-07T21:35:15.202Z,9.88
2022-10-07T21:40:16.818Z,9.99
2022-10-07T21:45:18.434Z,10.08
2022-10-07T21:50:20.031Z,10.09
2022-10-07T21:55:21.684Z,10.07
2022-10-07T22:00:23.385Z,10.06
2022-10-07T22:05:25.054Z,10.03
2022-10-07T22:10:26.808Z,10.00
2022-10-07T22:15:28.582Z,9.99
2022-10-07T22:20:30.685Z,9.98
2022-10-07T22:25:32.383Z,9.93
2022-10-07T22:30:34.017Z,9.89
2022-10-07T22:35:38.973Z,9.87
2022-10-07T22:40:40.590Z,9.86
2022-10-07T22:45:43.272Z,9.86
2022-10-07T22:50:44.915Z,9.80
2022-10-07T22:55:46.582Z,9.75
2022-10-07T23:00:50.540Z,9.70
2022-10-07T23:05:52.155Z,9.65
2022-10-07T23:10:57.568Z,9.62
2022-10-07T23:16:00.432Z,9.63
2022-10-07T23:21:02.990Z,9.63
2022-10-07T23:26:10.181Z,9.63
2022-10-07T23:31:14.249Z,9.63
2022-10-07T23:36:16.499Z,9.59
2022-10-07T23:41:20.093Z,9.55
2022-10-07T23:46:22.603Z,9.48
2022-10-07T23:51:25.736Z,9.47
2022-10-07T23:56:27.454Z,9.46
